Time;durP1;ratioP1;P1;durP2;ratioP2;P2;SDS_P1;SDS_P2;PMS_P1;PMS_P2;Temp;Humidity;BMP_temperature;BMP_pressure;BME280_temperature;BME280_humidity;BME280_pressure;Samples;Min_cycle;Max_cycle;Signal;HPM_P1;HPM_P2
2022/10/13 00:01:26;;;;;;;31.17;13.10;;;;;;;;;;8358552;28;20608;-88
2022/10/13 00:05:29;;;;;;;23.50;11.70;;;;;;;;;;8353758;28;20071;-89
2022/10/13 00:09:31;;;;;;;28.52;13.70;;;;;;;;;;8352352;28;20110;-89
2022/10/13 00:13:34;;;;;;;31.77;13.55;;;;;;;;;;8349170;28;20037;-89
2022/10/13 00:17:39;;;;;;;23.80;12.30;;;;;;;;;;8359602;28;20489;-89
2022/10/13 00:21:41;;;;;;;26.48;11.93;;;;;;;;;;8359421;28;20120;-89
2022/10/13 00:25:46;;;;;;;26.52;11.43;;;;;;;;;;8346648;28;20049;-89
2022/10/13 00:29:48;;;;;;;22.00;10.30;;;;;;;;;;8349563;28;20056;-89
2022/10/13 00:33:53;;;;;;;24.20;10.52;;;;;;;;;;8345576;28;20481;-90
2022/10/13 00:37:55;;;;;;;27.73;13.18;;;;;;;;;;8364217;28;20110;-91
2022/10/13 00:41:58;;;;;;;28.50;13.93;;;;;;;;;;8362911;28;20473;-89
2022/10/13 00:46:00;;;;;;;32.47;14.38;;;;;;;;;;8357564;28;20131;-87
2022/10/13 00:50:07;;;;;;;32.08;12.32;;;;;;;;;;8358354;28;20043;-88
2022/10/13 00:54:14;;;;;;;22.98;10.52;;;;;;;;;;8363939;28;20238;-87
2022/10/13 00:58:19;;;;;;;29.30;11.63;;;;;;;;;;8359214;28;20052;-88
2022/10/13 01:02:23;;;;;;;35.65;15.57;;;;;;;;;;8351368;28;20049;-89
2022/10/13 01:06:28;;;;;;;31.80;14.15;;;;;;;;;;8358674;28;20049;-88
2022/10/13 01:10:41;;;;;;;29.92;15.27;;;;;;;;;;8349191;28;20515;-88
2022/10/13 01:14:49;;;;;;;35.20;13.65;;;;;;;;;;8361506;28;20045;-88
2022/10/13 01:19:00;;;;;;;31.75;12.88;;;;;;;;;;8351271;28;20382;-90
2022/10/13 01:23:42;;;;;;;33.05;12.82;;;;;;;;;;8360884;28;20542;-89
2022/10/13 01:27:58;;;;;;;24.77;11.23;;;;;;;;;;8353359;28;20447;-88
2022/10/13 01:32:07;;;;;;;28.08;12.10;;;;;;;;;;8342403;28;20049;-88
2022/10/13 01:36:21;;;;;;;30.15;12.18;;;;;;;;;;8357352;28;20045;-89
2022/10/13 01:40:27;;;;;;;26.33;12.00;;;;;;;;;;8341502;28;20045;-89
2022/10/13 01:44:32;;;;;;;21.35;11.13;;;;;;;;;;8360913;28;20055;-89
2022/10/13 01:48:39;;;;;;;24.25;11.32;;;;;;;;;;8348735;28;20052;-91
2022/10/13 01:52:42;;;;;;;24.27;11.70;;;;;;;;;;8362227;28;20131;-90
2022/10/13 01:56:52;;;;;;;27.95;11.70;;;;;;;;;;8357172;28;20041;-90
2022/10/13 02:01:06;;;;;;;19.90;11.18;;;;;;;;;;8350868;28;20451;-91
2022/10/13 02:05:17;;;;;;;21.98;11.68;;;;;;;;;;8353419;28;20047;-90
2022/10/13 02:09:26;;;;;;;21.33;11.05;;;;;;;;;;8348714;28;20060;-88
2022/10/13 02:13:32;;;;;;;22.75;10.70;;;;;;;;;;8361449;28;20048;-88
2022/10/13 02:17:35;;;;;;;24.83;11.23;;;;;;;;;;8354565;28;20044;-92
2022/10/13 02:21:40;;;;;;;26.75;10.93;;;;;;;;;;8354436;28;20123;-89
2022/10/13 02:25:42;;;;;;;23.08;10.93;;;;;;;;;;8351256;28;20493;-87
2022/10/13 02:29:51;;;;;;;26.58;11.88;;;;;;;;;;8354217;28;20041;-88
2022/10/13 02:33:53;;;;;;;27.95;12.18;;;;;;;;;;8361479;28;20543;-88
2022/10/13 02:37:57;;;;;;;24.85;11.98;;;;;;;;;;8363608;28;20476;-88
2022/10/13 02:42:00;;;;;;;31.73;13.38;;;;;;;;;;8366244;28;20496;-90
2022/10/13 02:46:03;;;;;;;32.30;12.68;;;;;;;;;;8347802;28;20038;-89
2022/10/13 02:50:06;;;;;;;21.95;10.80;;;;;;;;;;8351759;28;20041;-89
2022/10/13 02:54:10;;;;;;;20.67;9.82;;;;;;;;;;8366300;28;20053;-88
2022/10/13 02:58:13;;;;;;;25.80;12.48;;;;;;;;;;8354011;28;20458;-88
2022/10/13 03:02:18;;;;;;;30.25;11.48;;;;;;;;;;8359082;28;20511;-89
2022/10/13 03:06:21;;;;;;;22.77;10.68;;;;;;;;;;8359783;28;20116;-89
2022/10/13 03:10:25;;;;;;;23.33;11.25;;;;;;;;;;8355938;28;20041;-89
2022/10/13 03:14:28;;;;;;;24.83;12.23;;;;;;;;;;8363895;28;20033;-90
2022/10/13 03:18:30;;;;;;;21.73;10.88;;;;;;;;;;8356776;28;20110;-89
2022/10/13 03:22:33;;;;;;;20.50;10.48;;;;;;;;;;8364151;28;20124;-88
2022/10/13 03:26:38;;;;;;;19.25;9.23;;;;;;;;;;8347213;28;20584;-88
2022/10/13 03:30:40;;;;;;;20.25;9.73;;;;;;;;;;8355718;28;20052;-88
2022/10/13 03:34:43;;;;;;;17.38;8.05;;;;;;;;;;8359194;28;20052;-87
2022/10/13 03:38:45;;;;;;;19.10;9.38;;;;;;;;;;8362014;28;20045;-88
2022/10/13 03:42:49;;;;;;;23.00;10.20;;;;;;;;;;8363706;28;20044;-88
2022/10/13 03:46:51;;;;;;;17.60;9.48;;;;;;;;;;8359283;28;20069;-87
2022/10/13 03:50:55;;;;;;;20.88;10.10;;;;;;;;;;8354876;28;20106;-88
2022/10/13 03:54:57;;;;;;;23.75;9.50;;;;;;;;;;8362836;28;20037;-88
2022/10/13 03:59:03;;;;;;;19.58;10.55;;;;;;;;;;8360491;28;20041;-88
2022/10/13 04:03:06;;;;;;;25.45;9.75;;;;;;;;;;8363661;28;20048;-89
2022/10/13 04:07:08;;;;;;;25.02;10.48;;;;;;;;;;8357445;28;20061;-89
2022/10/13 04:11:13;;;;;;;22.20;9.27;;;;;;;;;;8359207;28;20043;-88
2022/10/13 04:15:17;;;;;;;22.20;9.65;;;;;;;;;;8362561;28;20045;-87
2022/10/13 04:19:20;;;;;;;18.88;9.13;;;;;;;;;;8361587;28;20056;-87
2022/10/13 04:23:22;;;;;;;22.45;9.50;;;;;;;;;;8362503;28;20049;-87
2022/10/13 04:27:25;;;;;;;18.27;8.43;;;;;;;;;;8362728;28;20072;-88
2022/10/13 04:31:30;;;;;;;20.83;7.68;;;;;;;;;;8354582;28;20053;-89
2022/10/13 04:35:33;;;;;;;18.65;7.97;;;;;;;;;;8355360;28;20501;-89
2022/10/13 04:39:36;;;;;;;18.75;9.45;;;;;;;;;;8359378;28;20053;-88
2022/10/13 04:43:38;;;;;;;20.25;9.27;;;;;;;;;;8352392;28;20041;-89
2022/10/13 04:47:43;;;;;;;17.30;9.30;;;;;;;;;;8354923;28;20401;-89
2022/10/13 04:51:45;;;;;;;21.80;9.85;;;;;;;;;;8353652;28;20033;-87
2022/10/13 04:55:48;;;;;;;19.52;10.88;;;;;;;;;;8358983;28;20060;-86
2022/10/13 04:59:50;;;;;;;25.20;11.23;;;;;;;;;;8354899;28;20038;-87
2022/10/13 05:03:55;;;;;;;22.48;10.15;;;;;;;;;;8354374;28;20527;-88
2022/10/13 05:07:59;;;;;;;17.63;9.65;;;;;;;;;;8354378;28;20095;-86
2022/10/13 05:12:01;;;;;;;20.48;9.80;;;;;;;;;;8342270;28;20042;-86
2022/10/13 05:16:08;;;;;;;22.65;10.52;;;;;;;;;;8349203;28;20489;-87
2022/10/13 05:20:13;;;;;;;22.35;10.13;;;;;;;;;;8358808;28;20052;-87
2022/10/13 05:24:15;;;;;;;24.95;10.27;;;;;;;;;;8352804;28;20041;-87
2022/10/13 05:28:18;;;;;;;17.08;7.28;;;;;;;;;;8340819;28;20072;-88
2022/10/13 05:32:20;;;;;;;28.95;11.25;;;;;;;;;;8352150;28;20552;-86
2022/10/13 05:36:26;;;;;;;30.13;11.90;;;;;;;;;;8348294;28;20053;-87
2022/10/13 05:40:39;;;;;;;34.78;13.35;;;;;;;;;;8354025;28;20486;-89
2022/10/13 05:44:48;;;;;;;17.70;7.97;;;;;;;;;;8338551;28;20171;-86
2022/10/13 05:48:49;;;;;;;;;;;;;;;;;;8353828;28;20072;-87
2022/10/13 05:53:03;;;;;;;11.20;5.68;;;;;;;;;;8355968;28;19924;-88
2022/10/13 05:57:08;;;;;;;13.45;7.28;;;;;;;;;;8345682;28;20063;-87
2022/10/13 06:01:16;;;;;;;16.70;7.40;;;;;;;;;;8350355;28;20049;-88
2022/10/13 06:05:21;;;;;;;20.75;8.82;;;;;;;;;;8351129;28;20075;-88
2022/10/13 06:09:27;;;;;;;16.02;7.43;;;;;;;;;;8348538;28;20061;-87
2022/10/13 06:13:29;;;;;;;13.40;7.00;;;;;;;;;;8355914;28;20045;-88
2022/10/13 06:17:37;;;;;;;15.73;6.93;;;;;;;;;;8342703;28;20075;-88
2022/10/13 06:21:42;;;;;;;16.02;7.40;;;;;;;;;;8356357;28;20056;-87
2022/10/13 06:25:51;;;;;;;13.05;7.10;;;;;;;;;;8353579;28;20045;-93
2022/10/13 06:29:54;;;;;;;20.35;10.15;;;;;;;;;;8346069;28;20068;-89
2022/10/13 06:34:09;;;;;;;14.55;8.50;;;;;;;;;;8358366;28;20041;-93
2022/10/13 06:38:13;;;;;;;10.27;7.50;;;;;;;;;;8362407;28;20424;-90
2022/10/13 06:42:19;;;;;;;19.02;8.68;;;;;;;;;;8347185;22;20140;-89
2022/10/13 06:46:23;;;;;;;19.23;10.48;;;;;;;;;;8360916;28;20128;-91
2022/10/13 06:55:06;;;;;;;11.68;8.40;;;;;;;;;;8343033;22;20057;-91
2022/10/13 06:59:25;;;;;;;12.68;7.88;;;;;;;;;;8326215;28;20076;-91
2022/10/13 07:03:28;;;;;;;20.33;10.98;;;;;;;;;;8329415;28;20111;-90
2022/10/13 07:07:31;;;;;;;13.88;7.28;;;;;;;;;;8318418;28;20132;-91
2022/10/13 07:11:35;;;;;;;16.92;8.93;;;;;;;;;;8323774;28;20052;-90
2022/10/13 07:15:45;;;;;;;37.00;19.52;;;;;;;;;;8327638;28;20476;-89
2022/10/13 07:19:48;;;;;;;26.83;19.30;;;;;;;;;;8323420;28;20045;-88
2022/10/13 07:24:23;;;;;;;19.88;11.73;;;;;;;;;;8343657;22;20140;-89
2022/10/13 07:28:27;;;;;;;13.63;6.78;;;;;;;;;;8317722;28;20045;-90
2022/10/13 07:32:34;;;;;;;16.17;7.28;;;;;;;;;;8306149;28;20050;-90
2022/10/13 07:36:44;;;;;;;13.43;5.90;;;;;;;;;;8321995;28;20044;-88
2022/10/13 07:40:55;;;;;;;14.23;7.95;;;;;;;;;;8314123;28;20717;-89
2022/10/13 07:45:23;;;;;;;;;;;;;;;;;;8326750;28;20049;-89
2022/10/13 07:49:38;;;;;;;10.23;5.07;;;;;;;;;;8305396;28;19925;-90
2022/10/13 07:53:42;;;;;;;10.88;5.68;;;;;;;;;;8312813;28;20065;-90
2022/10/13 07:57:50;;;;;;;18.17;8.55;;;;;;;;;;8313501;28;20075;-90
2022/10/13 08:02:00;;;;;;;13.95;5.90;;;;;;;;;;8315767;28;20045;-89
2022/10/13 08:06:06;;;;;;;16.55;5.85;;;;;;;;;;8328265;28;20049;-91
2022/10/13 08:10:09;;;;;;;22.80;12.43;;;;;;;;;;8324793;28;20079;-92
2022/10/13 08:14:13;;;;;;;17.10;9.85;;;;;;;;;;8322274;28;20045;-90
2022/10/13 08:18:16;;;;;;;20.85;7.88;;;;;;;;;;8312735;28;20050;-92
2022/10/13 08:22:22;;;;;;;12.07;6.25;;;;;;;;;;8327257;28;20095;-90
2022/10/13 08:26:27;;;;;;;10.77;4.20;;;;;;;;;;8328064;28;20053;-90
2022/10/13 08:30:30;;;;;;;11.13;5.30;;;;;;;;;;8307459;28;20049;-92
2022/10/13 08:34:35;;;;;;;13.30;6.50;;;;;;;;;;8313596;28;20049;-92
2022/10/13 08:38:39;;;;;;;18.02;13.60;;;;;;;;;;8325337;28;20043;-90
2022/10/13 08:42:44;;;;;;;9.82;5.57;;;;;;;;;;8328696;28;20055;-92
2022/10/13 08:46:54;;;;;;;9.45;3.67;;;;;;;;;;8320415;28;20056;-91
2022/10/13 08:51:01;;;;;;;9.45;4.20;;;;;;;;;;8324767;28;20548;-91
2022/10/13 08:55:16;;;;;;;10.13;3.53;;;;;;;;;;8314088;28;20052;-91
2022/10/13 08:59:23;;;;;;;7.53;3.40;;;;;;;;;;8327133;28;20045;-89
2022/10/13 09:03:29;;;;;;;14.63;5.82;;;;;;;;;;8325741;28;20046;-92
2022/10/13 09:07:47;;;;;;;13.63;4.90;;;;;;;;;;8309714;28;20112;-90
2022/10/13 09:11:54;;;;;;;11.13;3.70;;;;;;;;;;8313285;28;20049;-91
2022/10/13 09:16:02;;;;;;;10.13;3.63;;;;;;;;;;8318816;28;20053;-91
2022/10/13 09:20:08;;;;;;;12.98;3.90;;;;;;;;;;8327062;28;20052;-91
2022/10/13 09:24:15;;;;;;;11.10;4.07;;;;;;;;;;8313104;28;20068;-90
2022/10/13 09:28:25;;;;;;;12.35;3.83;;;;;;;;;;8313782;28;20051;-90
2022/10/13 09:32:38;;;;;;;10.35;3.85;;;;;;;;;;8309600;28;20110;-91
2022/10/13 09:37:02;;;;;;;15.40;4.90;;;;;;;;;;8321282;28;20079;-90
2022/10/13 09:41:20;;;;;;;9.32;3.75;;;;;;;;;;8320511;28;20049;-89
2022/10/13 09:45:29;;;;;;;19.88;12.23;;;;;;;;;;8318928;28;20053;-90
2022/10/13 09:49:36;;;;;;;9.40;4.25;;;;;;;;;;8312462;28;20052;-89
2022/10/13 09:53:48;;;;;;;10.13;4.47;;;;;;;;;;8319497;28;20556;-92
2022/10/13 09:57:54;;;;;;;10.18;4.75;;;;;;;;;;8331650;28;20059;-89
2022/10/13 10:02:03;;;;;;;42.58;30.58;;;;;;;;;;8304320;28;20050;-88
2022/10/13 10:06:12;;;;;;;14.05;6.18;;;;;;;;;;8317074;28;20045;-89
2022/10/13 10:10:27;;;;;;;21.10;9.38;;;;;;;;;;8313067;28;20094;-89
2022/10/13 10:14:32;;;;;;;7.63;3.35;;;;;;;;;;8318082;28;20042;-90
2022/10/13 10:18:47;;;;;;;9.77;4.03;;;;;;;;;;8317808;28;20461;-88
2022/10/13 10:22:59;;;;;;;8.32;3.70;;;;;;;;;;8326314;28;20064;-90
2022/10/13 10:27:07;;;;;;;11.52;4.28;;;;;;;;;;8325742;28;20057;-90
2022/10/13 10:31:23;;;;;;;13.88;6.43;;;;;;;;;;8305139;28;20057;-90
2022/10/13 10:35:47;;;;;;;12.02;5.60;;;;;;;;;;8305979;28;20041;-90
2022/10/13 10:39:57;;;;;;;18.30;5.68;;;;;;;;;;8327090;28;20053;-89
2022/10/13 10:44:02;;;;;;;11.63;5.05;;;;;;;;;;8323308;28;20045;-89
2022/10/13 10:48:13;;;;;;;13.88;6.88;;;;;;;;;;8324251;28;20556;-89
2022/10/13 10:52:25;;;;;;;22.30;10.70;;;;;;;;;;8322859;28;20505;-90
2022/10/13 10:56:30;;;;;;;;;;;;;;;;;;8326198;28;20042;-90
2022/10/13 11:00:37;;;;;;;20.05;6.55;;;;;;;;;;8313726;28;19933;-90
2022/10/13 11:04:42;;;;;;;22.10;7.50;;;;;;;;;;8322552;28;20048;-89
2022/10/13 11:08:49;;;;;;;16.33;6.72;;;;;;;;;;8318931;28;20128;-89
2022/10/13 11:13:16;;;;;;;11.02;4.65;;;;;;;;;;8317917;28;20049;-89
2022/10/13 11:17:38;;;;;;;12.65;4.53;;;;;;;;;;8311959;28;20045;-89
2022/10/13 11:22:13;;;;;;;9.98;3.70;;;;;;;;;;8327913;28;20053;-89
2022/10/13 11:26:44;;;;;;;15.90;5.78;;;;;;;;;;8322933;28;20057;-91
2022/10/13 11:30:50;;;;;;;16.02;5.55;;;;;;;;;;8310991;28;20141;-91
2022/10/13 11:34:58;;;;;;;26.25;4.97;;;;;;;;;;8320034;28;20049;-89
2022/10/13 11:39:13;;;;;;;12.07;5.30;;;;;;;;;;8317227;28;20041;-90
2022/10/13 11:43:28;;;;;;;8.35;3.60;;;;;;;;;;8310834;28;20053;-89
2022/10/13 11:47:54;;;;;;;10.90;4.18;;;;;;;;;;8313886;28;20053;-89
2022/10/13 11:52:21;;;;;;;9.57;3.97;;;;;;;;;;8318870;28;20045;-90
2022/10/13 11:56:34;;;;;;;8.07;4.05;;;;;;;;;;8311755;28;20498;-91
2022/10/13 12:00:38;;;;;;;14.65;4.97;;;;;;;;;;8322745;28;20049;-90
2022/10/13 12:04:41;;;;;;;8.00;4.63;;;;;;;;;;8325923;28;20107;-89
2022/10/13 12:08:47;;;;;;;11.50;5.13;;;;;;;;;;8321201;28;20045;-91
2022/10/13 12:12:51;;;;;;;14.95;5.53;;;;;;;;;;8318293;28;20038;-90
2022/10/13 12:16:55;;;;;;;15.38;4.38;;;;;;;;;;8315996;28;20173;-89
2022/10/13 12:21:00;;;;;;;6.47;2.95;;;;;;;;;;8324840;28;20114;-89
2022/10/13 12:25:07;;;;;;;9.02;4.13;;;;;;;;;;8325403;28;20049;-88
2022/10/13 12:29:13;;;;;;;14.32;4.43;;;;;;;;;;8313218;28;20049;-90
2022/10/13 12:33:26;;;;;;;9.80;4.38;;;;;;;;;;8315908;28;20576;-90
2022/10/13 12:37:32;;;;;;;13.18;4.60;;;;;;;;;;8318256;28;20552;-90
2022/10/13 12:41:37;;;;;;;28.48;11.45;;;;;;;;;;8321136;28;20050;-90
2022/10/13 12:45:40;;;;;;;13.48;5.10;;;;;;;;;;8311356;28;20053;-91
2022/10/13 12:49:44;;;;;;;9.35;4.15;;;;;;;;;;8324536;28;20095;-90
2022/10/13 12:53:48;;;;;;;11.63;4.90;;;;;;;;;;8324202;28;20152;-88
2022/10/13 12:57:53;;;;;;;20.90;8.80;;;;;;;;;;8324619;28;20049;-87
2022/10/13 13:02:04;;;;;;;9.65;4.75;;;;;;;;;;8312956;28;20056;-89
2022/10/13 13:06:09;;;;;;;;;;;;;;;;;;8313601;28;20056;-88
2022/10/13 13:10:18;;;;;;;10.52;4.55;;;;;;;;;;8303373;28;19922;-89
2022/10/13 13:14:36;;;;;;;10.93;4.68;;;;;;;;;;8316996;28;20053;-89
2022/10/13 13:18:41;;;;;;;10.65;4.65;;;;;;;;;;8309569;28;20420;-89
2022/10/13 13:22:45;;;;;;;8.48;4.53;;;;;;;;;;8321187;28;20052;-87
2022/10/13 13:26:48;;;;;;;8.15;4.22;;;;;;;;;;8318124;28;20091;-88
2022/10/13 13:30:50;;;;;;;10.60;4.90;;;;;;;;;;8321039;28;20080;-90
2022/10/13 13:34:53;;;;;;;114.90;49.17;;;;;;;;;;8323318;28;20049;-88
2022/10/13 13:38:57;;;;;;;16.80;8.30;;;;;;;;;;8306286;28;20091;-89
2022/10/13 13:43:00;;;;;;;22.20;12.35;;;;;;;;;;8324278;28;20042;-88
2022/10/13 13:47:04;;;;;;;9.18;5.35;;;;;;;;;;8322938;28;20045;-89
2022/10/13 13:51:09;;;;;;;10.63;4.97;;;;;;;;;;8305947;28;20049;-90
2022/10/13 13:55:13;;;;;;;12.73;5.20;;;;;;;;;;8316703;28;20064;-89
2022/10/13 13:59:15;;;;;;;12.13;5.18;;;;;;;;;;8298891;28;20045;-89
2022/10/13 14:03:18;;;;;;;11.43;4.80;;;;;;;;;;8304298;28;20405;-91
2022/10/13 14:07:20;;;;;;;10.07;4.20;;;;;;;;;;8315113;28;20067;-91
2022/10/13 14:11:24;;;;;;;10.63;4.55;;;;;;;;;;8327688;28;20072;-90
2022/10/13 14:15:27;;;;;;;8.43;4.03;;;;;;;;;;8314642;28;20038;-90
2022/10/13 14:19:31;;;;;;;11.70;5.03;;;;;;;;;;8319556;28;20041;-88
2022/10/13 14:23:34;;;;;;;11.60;4.60;;;;;;;;;;8319095;28;20076;-90
2022/10/13 14:27:38;;;;;;;9.70;4.47;;;;;;;;;;8315566;28;20049;-89
2022/10/13 14:31:41;;;;;;;9.70;4.50;;;;;;;;;;8325465;28;20064;-89
2022/10/13 14:35:44;;;;;;;7.90;4.43;;;;;;;;;;8321181;28;20049;-89
2022/10/13 14:39:46;;;;;;;8.55;4.40;;;;;;;;;;8334155;28;20524;-89
2022/10/13 14:43:54;;;;;;;10.43;4.97;;;;;;;;;;8332356;28;20049;-89
2022/10/13 14:47:57;;;;;;;13.35;4.63;;;;;;;;;;8333554;28;20042;-89
2022/10/13 14:52:04;;;;;;;10.02;4.55;;;;;;;;;;8319397;28;20413;-90
2022/10/13 15:00:39;;;;;;;10.25;5.43;;;;;;;;;;8325369;28;20053;-89
2022/10/13 15:04:41;;;;;;;9.65;4.90;;;;;;;;;;8332155;28;20053;-89
2022/10/13 15:08:45;;;;;;;9.65;4.78;;;;;;;;;;8331946;28;20124;-88
2022/10/13 15:12:47;;;;;;;6.78;4.30;;;;;;;;;;8315185;28;20039;-88
2022/10/13 15:17:02;;;;;;;8.70;5.20;;;;;;;;;;8311666;28;20045;-88
2022/10/13 15:21:04;;;;;;;11.52;5.35;;;;;;;;;;8311369;28;20049;-88
2022/10/13 15:29:38;;;;;;;10.40;5.40;;;;;;;;;;8307740;28;20919;-88
2022/10/13 15:33:48;;;;;;;8.10;5.15;;;;;;;;;;8310243;28;20108;-87
2022/10/13 15:37:58;;;;;;;13.27;6.50;;;;;;;;;;8307906;28;20661;-87
2022/10/13 15:42:04;;;;;;;11.15;6.47;;;;;;;;;;8316158;28;20632;-89
2022/10/13 15:46:11;;;;;;;12.27;5.65;;;;;;;;;;8318861;28;20474;-87
2022/10/13 15:50:20;;;;;;;10.85;5.97;;;;;;;;;;8304237;28;20056;-88
2022/10/13 15:54:24;;;;;;;13.60;6.78;;;;;;;;;;8319397;28;20110;-86
2022/10/13 15:58:27;;;;;;;11.82;7.55;;;;;;;;;;8313139;28;20573;-87
2022/10/13 16:02:30;;;;;;;16.48;8.05;;;;;;;;;;8303326;28;20045;-86
2022/10/13 16:06:36;;;;;;;13.30;6.40;;;;;;;;;;8310418;28;20046;-88
2022/10/13 16:10:39;;;;;;;14.02;6.07;;;;;;;;;;8321269;28;20045;-87
2022/10/13 16:14:43;;;;;;;22.23;11.00;;;;;;;;;;8323077;28;20072;-86
2022/10/13 16:18:46;;;;;;;13.13;7.43;;;;;;;;;;8320727;28;20141;-86
2022/10/13 16:22:50;;;;;;;16.10;7.38;;;;;;;;;;8323764;28;20041;-87
2022/10/13 16:26:52;;;;;;;14.25;7.65;;;;;;;;;;8313859;28;20460;-88
2022/10/13 16:30:55;;;;;;;11.63;6.72;;;;;;;;;;8306912;28;20413;-88
2022/10/13 16:34:57;;;;;;;14.35;7.40;;;;;;;;;;8318118;28;20073;-87
2022/10/13 16:39:02;;;;;;;12.00;7.28;;;;;;;;;;8322749;28;20416;-88
2022/10/13 16:43:04;;;;;;;20.55;7.28;;;;;;;;;;8313057;28;20045;-88
2022/10/13 16:47:08;;;;;;;14.05;7.63;;;;;;;;;;8312875;28;20045;-89
2022/10/13 16:51:24;;;;;;;14.88;7.18;;;;;;;;;;8305197;28;20072;-90
2022/10/13 16:55:28;;;;;;;14.43;7.80;;;;;;;;;;8308060;28;20080;-91
2022/10/13 16:59:31;;;;;;;19.00;9.50;;;;;;;;;;8312249;28;20072;-90
2022/10/13 17:03:34;;;;;;;25.88;12.30;;;;;;;;;;8333598;28;20054;-90
2022/10/13 17:07:41;;;;;;;17.40;7.72;;;;;;;;;;8346228;28;20052;-88
2022/10/13 17:11:53;;;;;;;15.38;9.07;;;;;;;;;;8352929;28;20072;-88
2022/10/13 17:15:57;;;;;;;15.80;8.85;;;;;;;;;;8312720;28;20074;-89
2022/10/13 17:20:03;;;;;;;16.15;7.55;;;;;;;;;;8323258;28;20137;-88
2022/10/13 17:24:47;;;;;;;35.20;18.33;;;;;;;;;;8320812;28;20092;-89
2022/10/13 17:28:55;;;;;;;20.47;10.87;;;;;;;;;;8320778;28;20548;-89
2022/10/13 17:32:59;;;;;;;20.77;10.13;;;;;;;;;;8325442;28;20054;-88
2022/10/13 17:37:03;;;;;;;37.15;21.30;;;;;;;;;;8315047;28;20072;-88
2022/10/13 17:41:17;;;;;;;71.22;36.85;;;;;;;;;;8321048;28;20069;-89
2022/10/13 17:45:26;;;;;;;53.58;27.88;;;;;;;;;;8313233;28;20041;-89
2022/10/13 17:49:42;;;;;;;20.63;12.10;;;;;;;;;;8315010;28;20041;-89
2022/10/13 17:54:20;;;;;;;21.17;9.85;;;;;;;;;;8328475;28;20481;-88
2022/10/13 18:03:20;;;;;;;24.97;13.80;;;;;;;;;;8333515;28;20420;-87
2022/10/13 18:07:26;;;;;;;35.60;19.10;;;;;;;;;;8317475;28;20102;-87
2022/10/13 18:11:35;;;;;;;30.33;17.55;;;;;;;;;;8333477;28;20041;-88
2022/10/13 18:15:43;;;;;;;37.58;18.70;;;;;;;;;;8297494;28;20061;-89
2022/10/13 18:19:49;;;;;;;30.83;16.60;;;;;;;;;;8301924;28;20116;-88
2022/10/13 18:23:55;;;;;;;30.38;15.50;;;;;;;;;;8331980;28;20137;-88
2022/10/13 18:28:03;;;;;;;26.30;11.88;;;;;;;;;;8331597;28;20038;-88
2022/10/13 18:32:09;;;;;;;23.38;12.40;;;;;;;;;;8326497;28;20061;-88
2022/10/13 18:36:18;;;;;;;26.63;11.98;;;;;;;;;;8327141;28;20478;-89
2022/10/13 18:40:22;;;;;;;24.95;12.00;;;;;;;;;;8302960;28;20053;-90
2022/10/13 18:44:25;;;;;;;26.13;12.15;;;;;;;;;;8320996;28;20033;-90
2022/10/13 18:48:28;;;;;;;31.33;13.00;;;;;;;;;;8321429;28;20197;-90
2022/10/13 18:52:32;;;;;;;25.85;11.40;;;;;;;;;;8331043;28;20060;-86
2022/10/13 18:56:36;;;;;;;24.00;10.50;;;;;;;;;;8332652;28;20128;-85
2022/10/13 19:00:39;;;;;;;22.00;11.02;;;;;;;;;;8333161;28;20068;-88
2022/10/13 19:04:42;;;;;;;28.38;13.25;;;;;;;;;;8330656;28;20042;-87
2022/10/13 19:08:47;;;;;;;21.80;11.45;;;;;;;;;;8332169;28;20077;-87
2022/10/13 19:12:50;;;;;;;19.77;10.43;;;;;;;;;;8329062;28;20045;-89
2022/10/13 19:16:53;;;;;;;23.00;10.43;;;;;;;;;;8333157;28;20119;-88
2022/10/13 19:20:55;;;;;;;20.80;10.48;;;;;;;;;;8333029;28;20041;-87
2022/10/13 19:25:00;;;;;;;23.75;11.00;;;;;;;;;;8332829;28;20511;-88
2022/10/13 19:29:07;;;;;;;18.15;9.65;;;;;;;;;;8332702;28;20495;-89
2022/10/13 19:33:12;;;;;;;21.73;10.05;;;;;;;;;;8332801;28;20055;-88
2022/10/13 19:37:15;;;;;;;27.55;12.20;;;;;;;;;;8332894;28;20417;-85
2022/10/13 19:41:23;;;;;;;27.27;13.23;;;;;;;;;;8331881;28;20876;-88
2022/10/13 19:50:07;;;;;;;17.98;9.88;;;;;;;;;;8327930;28;20045;-88
2022/10/13 19:54:11;;;;;;;16.88;9.27;;;;;;;;;;8331832;28;20171;-88
2022/10/13 19:58:17;;;;;;;22.30;10.07;;;;;;;;;;8331841;28;20051;-88
2022/10/13 20:02:20;;;;;;;25.42;11.43;;;;;;;;;;8331840;28;20049;-86
2022/10/13 20:06:25;;;;;;;25.45;12.25;;;;;;;;;;8331446;28;20048;-88
2022/10/13 20:10:32;;;;;;;21.25;9.48;;;;;;;;;;8331232;28;20561;-90
2022/10/13 20:14:37;;;;;;;28.25;13.43;;;;;;;;;;8330638;28;20124;-87
2022/10/13 20:18:41;;;;;;;34.40;16.23;;;;;;;;;;8330062;28;20045;-87
2022/10/13 20:22:43;;;;;;;34.00;14.82;;;;;;;;;;8330452;28;20041;-87
2022/10/13 20:26:46;;;;;;;34.08;14.88;;;;;;;;;;8330804;28;20068;-88
2022/10/13 20:30:53;;;;;;;29.88;12.57;;;;;;;;;;8330940;28;20528;-87
2022/10/13 20:34:56;;;;;;;27.95;12.70;;;;;;;;;;8329959;28;20041;-87
2022/10/13 20:38:59;;;;;;;33.28;15.52;;;;;;;;;;8330459;28;20053;-87
2022/10/13 20:43:02;;;;;;;31.13;13.40;;;;;;;;;;8330355;28;20215;-87
2022/10/13 20:47:06;;;;;;;24.27;11.75;;;;;;;;;;8330535;28;20095;-88
2022/10/13 20:51:12;;;;;;;23.20;11.48;;;;;;;;;;8312515;28;20064;-86
2022/10/13 20:55:14;;;;;;;21.10;10.80;;;;;;;;;;8317301;28;20091;-87
2022/10/13 20:59:17;;;;;;;22.88;10.40;;;;;;;;;;8330158;28;20052;-87
2022/10/13 21:03:21;;;;;;;22.42;11.02;;;;;;;;;;8329799;28;20561;-88
2022/10/13 21:07:24;;;;;;;23.65;9.70;;;;;;;;;;8329790;28;20400;-88
2022/10/13 21:11:26;;;;;;;22.20;10.40;;;;;;;;;;8329655;28;20061;-88
2022/10/13 21:15:29;;;;;;;24.75;11.00;;;;;;;;;;8329565;28;20052;-88
2022/10/13 21:19:38;;;;;;;23.92;11.43;;;;;;;;;;8328922;28;20041;-88
2022/10/13 21:23:40;;;;;;;23.17;11.70;;;;;;;;;;8328695;28;20061;-88
2022/10/13 21:27:43;;;;;;;24.13;10.10;;;;;;;;;;8328967;28;20072;-86
2022/10/13 21:31:45;;;;;;;25.95;10.90;;;;;;;;;;8328450;28;20037;-87
2022/10/13 21:35:49;;;;;;;29.48;13.15;;;;;;;;;;8328773;28;20041;-86
2022/10/13 21:39:53;;;;;;;27.17;12.05;;;;;;;;;;8328574;28;20041;-88
2022/10/13 21:43:57;;;;;;;28.40;13.48;;;;;;;;;;8328435;28;20052;-88
2022/10/13 21:48:00;;;;;;;28.75;13.48;;;;;;;;;;8311334;28;20103;-88
2022/10/13 21:52:04;;;;;;;27.90;13.23;;;;;;;;;;8329047;28;20370;-88
2022/10/13 21:56:07;;;;;;;27.73;14.02;;;;;;;;;;8322564;28;20053;-88
2022/10/13 22:00:13;;;;;;;30.73;12.40;;;;;;;;;;8328103;28;20045;-88
2022/10/13 22:04:16;;;;;;;28.48;12.18;;;;;;;;;;8316069;28;20050;-87
2022/10/13 22:08:20;;;;;;;32.72;14.27;;;;;;;;;;8311354;28;20136;-88
2022/10/13 22:12:22;;;;;;;29.60;14.10;;;;;;;;;;8327976;28;20053;-87
2022/10/13 22:16:27;;;;;;;31.05;13.90;;;;;;;;;;8328304;28;20092;-87
2022/10/13 22:20:30;;;;;;;33.92;14.80;;;;;;;;;;8327627;28;20041;-88
2022/10/13 22:24:34;;;;;;;29.65;13.93;;;;;;;;;;8327692;28;20053;-87
2022/10/13 22:28:37;;;;;;;39.08;16.75;;;;;;;;;;8327831;28;20560;-87
2022/10/13 22:32:39;;;;;;;35.22;16.50;;;;;;;;;;8327966;28;20124;-89
2022/10/13 22:36:42;;;;;;;30.42;13.00;;;;;;;;;;8327931;28;20103;-88
2022/10/13 22:40:46;;;;;;;33.75;13.93;;;;;;;;;;8327779;28;20581;-87
2022/10/13 22:44:49;;;;;;;29.88;12.80;;;;;;;;;;8333507;28;20469;-88
2022/10/13 22:48:52;;;;;;;26.17;13.05;;;;;;;;;;8333584;28;20132;-88
2022/10/13 22:52:54;;;;;;;28.77;13.35;;;;;;;;;;8333073;28;20149;-86
2022/10/13 22:56:58;;;;;;;;;;;;;;;;;;8334191;28;20073;-87
2022/10/13 23:01:05;;;;;;;28.15;11.45;;;;;;;;;;8333006;28;19928;-88
2022/10/13 23:05:08;;;;;;;26.48;12.90;;;;;;;;;;8333317;28;20057;-88
2022/10/13 23:09:13;;;;;;;32.15;13.30;;;;;;;;;;8333714;28;20049;-88
2022/10/13 23:13:17;;;;;;;32.20;13.63;;;;;;;;;;8332928;28;20041;-86
2022/10/13 23:17:19;;;;;;;31.05;12.65;;;;;;;;;;8332996;28;20049;-87
2022/10/13 23:21:24;;;;;;;25.48;13.23;;;;;;;;;;8332723;28;20052;-89
2022/10/13 23:25:27;;;;;;;31.02;13.57;;;;;;;;;;8315196;28;20132;-88
2022/10/13 23:29:31;;;;;;;25.80;13.40;;;;;;;;;;8331805;28;20042;-88
2022/10/13 23:33:34;;;;;;;31.33;15.32;;;;;;;;;;8332320;28;20096;-88
2022/10/13 23:37:37;;;;;;;31.65;13.68;;;;;;;;;;8331839;28;20058;-86
2022/10/13 23:41:40;;;;;;;26.02;13.27;;;;;;;;;;8332453;28;20137;-88
2022/10/13 23:45:44;;;;;;;27.73;13.98;;;;;;;;;;8331981;28;20045;-88
2022/10/13 23:49:47;;;;;;;31.30;13.60;;;;;;;;;;8331455;28;20056;-87
2022/10/13 23:53:49;;;;;;;29.38;14.43;;;;;;;;;;8331239;28;20120;-88
2022/10/13 23:57:54;;;;;;;25.38;12.88;;;;;;;;;;8331798;28;20511;-87
